createdAt,value
2023-04-17T00:01:38.648Z,11.43
2023-04-17T00:04:10.743Z,11.13
2023-04-17T00:06:38.536Z,11.48
2023-04-17T00:09:06.238Z,11.65
2023-04-17T00:11:33.107Z,10.63
2023-04-17T00:14:00.307Z,10.73
2023-04-17T00:16:28.046Z,13.15
2023-04-17T00:18:55.888Z,11.27
2023-04-17T00:21:22.949Z,12.00
2023-04-17T00:23:50.231Z,11.75
2023-04-17T00:26:17.164Z,11.82
2023-04-17T00:28:44.280Z,13.30
2023-04-17T00:31:11.150Z,13.23
2023-04-17T00:33:38.361Z,14.45
2023-04-17T00:36:06.109Z,12.98
2023-04-17T00:38:33.225Z,13.18
2023-04-17T00:41:00.386Z,12.70
2023-04-17T00:43:27.532Z,13.63
2023-04-17T00:45:54.895Z,13.15
2023-04-17T00:48:24.202Z,11.73
2023-04-17T00:50:51.096Z,12.88
2023-04-17T00:53:18.815Z,12.63
2023-04-17T00:55:48.565Z,13.52
2023-04-17T00:58:15.934Z,12.88
2023-04-17T01:00:42.737Z,12.57
2023-04-17T01:03:10.820Z,13.50
2023-04-17T01:05:38.499Z,14.48
2023-04-17T01:08:05.913Z,15.02
2023-04-17T01:10:32.703Z,15.00
2023-04-17T01:13:04.595Z,14.95
2023-04-17T01:15:31.619Z,15.35
2023-04-17T01:17:58.950Z,15.50
2023-04-17T01:20:25.840Z,14.32
2023-04-17T01:22:53.012Z,15.95
2023-04-17T01:25:20.401Z,15.25
2023-04-17T01:27:47.577Z,15.35
2023-04-17T01:30:14.772Z,16.35
2023-04-17T01:32:42.053Z,16.10
2023-04-17T01:35:09.596Z,15.80
2023-04-17T01:37:36.921Z,14.85
2023-04-17T01:40:07.257Z,14.93
2023-04-17T01:42:34.763Z,14.70
2023-04-17T01:45:01.575Z,15.32
2023-04-17T01:47:28.721Z,14.90
2023-04-17T01:49:55.595Z,14.95
2023-04-17T01:52:22.757Z,13.70
2023-04-17T01:54:49.630Z,14.32
2023-04-17T01:57:16.801Z,14.68
2023-04-17T01:59:43.689Z,13.52
2023-04-17T02:02:11.016Z,13.60
2023-04-17T02:04:37.995Z,12.93
2023-04-17T02:07:05.270Z,13.55
2023-04-17T02:09:32.412Z,12.73
2023-04-17T02:11:59.588Z,13.18
2023-04-17T02:14:26.592Z,12.48
2023-04-17T02:16:53.897Z,11.30
2023-04-17T02:19:21.503Z,12.00
2023-04-17T02:21:48.603Z,11.20
2023-04-17T02:24:15.436Z,11.30
2023-04-17T02:26:42.678Z,11.50
2023-04-17T02:29:09.616Z,11.57
2023-04-17T02:31:36.918Z,10.48
2023-04-17T02:34:03.834Z,11.80
2023-04-17T02:36:31.367Z,12.13
2023-04-17T02:38:58.232Z,11.55
2023-04-17T02:41:25.707Z,11.68
2023-04-17T02:43:52.531Z,11.63
2023-04-17T02:46:19.739Z,11.35
2023-04-17T02:48:46.701Z,11.85
2023-04-17T02:51:13.846Z,11.73
2023-04-17T02:53:41.251Z,11.98
2023-04-17T02:56:08.453Z,10.95
2023-04-17T02:58:35.307Z,12.00
2023-04-17T03:01:03.536Z,12.68
2023-04-17T03:03:35.464Z,12.10
2023-04-17T03:06:03.012Z,12.32
2023-04-17T03:08:32.510Z,12.32
2023-04-17T03:11:00.250Z,11.98
2023-04-17T03:13:27.132Z,11.90
2023-04-17T03:15:54.438Z,12.98
2023-04-17T03:18:21.279Z,13.35
2023-04-17T03:20:48.453Z,12.63
2023-04-17T03:23:15.505Z,12.80
2023-04-17T03:25:42.768Z,12.50
2023-04-17T03:28:09.615Z,12.60
2023-04-17T03:30:36.717Z,13.23
2023-04-17T03:33:03.679Z,13.50
2023-04-17T03:35:30.977Z,12.27
2023-04-17T03:37:57.773Z,12.35
2023-04-17T03:40:25.116Z,12.45
2023-04-17T03:42:51.982Z,12.82
2023-04-17T03:45:19.277Z,11.77
2023-04-17T03:47:47.959Z,13.05
2023-04-17T03:50:15.389Z,12.20
2023-04-17T03:52:43.271Z,11.25
2023-04-17T03:55:11.505Z,11.68
2023-04-17T03:57:38.377Z,11.45
2023-04-17T04:00:12.473Z,12.65
2023-04-17T04:02:39.440Z,13.13
2023-04-17T04:05:07.482Z,12.50
2023-04-17T04:07:34.402Z,13.55
2023-04-17T04:10:01.595Z,14.02
2023-04-17T04:12:28.564Z,12.48
2023-04-17T04:14:55.716Z,14.82
2023-04-17T04:17:22.587Z,15.50
2023-04-17T04:19:49.753Z,15.93
2023-04-17T04:22:16.780Z,15.45
2023-04-17T04:24:44.213Z,16.90
2023-04-17T04:27:12.188Z,19.17
2023-04-17T04:29:39.365Z,18.40
2023-04-17T04:32:09.786Z,18.67
2023-04-17T04:34:37.002Z,19.13
2023-04-17T04:37:03.895Z,21.55
2023-04-17T04:39:31.138Z,21.67
2023-04-17T04:42:05.824Z,23.05
2023-04-17T04:44:33.029Z,23.63
2023-04-17T04:46:59.947Z,24.92
2023-04-17T04:49:27.254Z,24.92
2023-04-17T04:51:54.282Z,23.85
2023-04-17T04:54:21.437Z,24.50
2023-04-17T04:56:48.335Z,23.48
2023-04-17T04:59:15.513Z,24.30
2023-04-17T05:01:43.074Z,25.60
2023-04-17T05:04:10.542Z,35.65
2023-04-17T05:06:37.547Z,29.40
2023-04-17T05:09:04.787Z,43.20
2023-04-17T05:11:33.474Z,33.40
2023-04-17T05:14:00.659Z,31.58
2023-04-17T05:16:27.593Z,28.33
2023-04-17T05:18:55.489Z,32.55
2023-04-17T05:21:22.403Z,27.67
2023-04-17T05:23:49.624Z,25.67
2023-04-17T05:26:16.711Z,24.85
2023-04-17T05:28:45.295Z,25.92
2023-04-17T05:31:12.290Z,25.57
2023-04-17T05:33:39.586Z,27.00
2023-04-17T05:36:07.557Z,23.55
2023-04-17T05:38:34.689Z,25.80
2023-04-17T05:41:02.235Z,24.20
2023-04-17T05:43:29.428Z,24.67
2023-04-17T05:45:56.342Z,24.02
2023-04-17T05:48:24.030Z,24.77
2023-04-17T05:50:50.954Z,25.10
2023-04-17T05:53:18.170Z,24.58
2023-04-17T05:55:45.047Z,32.45
2023-04-17T06:00:42.410Z,22.33
2023-04-17T06:03:09.715Z,23.60
2023-04-17T06:05:36.842Z,22.15
2023-04-17T06:08:04.285Z,22.15
2023-04-17T06:10:33.586Z,21.17
2023-04-17T06:13:00.794Z,19.73
2023-04-17T06:15:27.753Z,19.85
2023-04-17T06:17:54.928Z,19.17
2023-04-17T06:20:21.848Z,21.00
2023-04-17T06:22:49.700Z,21.42
2023-04-17T06:25:16.745Z,20.67
2023-04-17T06:27:43.903Z,19.92
2023-04-17T06:30:11.224Z,18.52
2023-04-17T06:32:42.364Z,21.38
2023-04-17T06:35:12.286Z,22.90
2023-04-17T06:37:39.529Z,18.38
2023-04-17T06:40:07.121Z,16.00
2023-04-17T06:42:35.596Z,15.80
2023-04-17T06:45:02.540Z,15.65
2023-04-17T06:47:29.887Z,15.40
2023-04-17T06:49:59.815Z,15.68
2023-04-17T06:52:26.932Z,16.58
2023-04-17T06:54:56.869Z,15.65
2023-04-17T06:57:24.078Z,15.52
2023-04-17T06:59:50.968Z,12.85
2023-04-17T07:02:18.302Z,14.05
2023-04-17T07:04:45.318Z,14.18
2023-04-17T07:07:12.563Z,13.55
2023-04-17T07:09:39.421Z,13.57
2023-04-17T07:12:06.632Z,13.07
2023-04-17T07:14:33.686Z,13.43
2023-04-17T07:17:01.398Z,13.30
2023-04-17T07:19:28.384Z,17.90
2023-04-17T07:21:56.472Z,12.90
2023-04-17T07:24:23.347Z,11.88
2023-04-17T07:26:50.660Z,11.75
2023-04-17T07:29:17.910Z,11.73
2023-04-17T07:31:45.737Z,12.65
2023-04-17T07:34:12.788Z,10.82
2023-04-17T07:36:39.891Z,12.00
2023-04-17T07:39:08.084Z,11.43
2023-04-17T07:41:35.595Z,10.98
2023-04-17T07:44:06.381Z,11.10
2023-04-17T07:46:33.543Z,15.35
2023-04-17T07:49:00.467Z,11.00
2023-04-17T07:51:27.888Z,11.43
2023-04-17T07:53:54.780Z,11.95
2023-04-17T07:56:21.900Z,11.32
2023-04-17T07:58:52.042Z,10.38
2023-04-17T08:01:19.508Z,9.45
2023-04-17T08:03:46.702Z,10.35
2023-04-17T08:06:14.128Z,9.02
2023-04-17T08:08:41.122Z,10.93
2023-04-17T08:11:08.334Z,9.23
2023-04-17T08:13:35.201Z,11.45
2023-04-17T08:16:02.430Z,10.45
2023-04-17T08:18:29.217Z,10.52
2023-04-17T08:20:56.442Z,8.68
2023-04-17T08:23:23.383Z,12.90
2023-04-17T08:25:50.714Z,11.25
2023-04-17T08:28:17.634Z,11.05
2023-04-17T08:30:45.190Z,9.85
2023-04-17T08:33:13.569Z,10.40
2023-04-17T08:35:40.755Z,10.88
2023-04-17T08:38:08.405Z,10.55
2023-04-17T08:40:35.563Z,10.50
2023-04-17T08:43:03.774Z,9.68
2023-04-17T08:45:32.454Z,10.93
2023-04-17T08:47:59.349Z,9.52
2023-04-17T08:50:27.187Z,12.30
2023-04-17T08:52:54.086Z,12.55
2023-04-17T08:55:25.555Z,12.27
2023-04-17T08:57:58.727Z,12.52
2023-04-17T09:00:28.187Z,12.05
2023-04-17T09:02:57.249Z,12.10
2023-04-17T09:05:26.670Z,16.15
2023-04-17T09:08:20.842Z,18.38
2023-04-17T09:10:53.211Z,13.52
2023-04-17T09:13:27.732Z,15.23
2023-04-17T09:16:10.049Z,15.93
2023-04-17T09:18:38.406Z,13.85
2023-04-17T09:21:07.235Z,17.27
2023-04-17T09:23:49.676Z,15.73
2023-04-17T09:26:25.193Z,15.77
2023-04-17T09:29:12.439Z,10.23
2023-04-17T09:31:42.402Z,10.73
2023-04-17T09:34:12.174Z,11.05
2023-04-17T09:36:41.783Z,11.30
2023-04-17T09:41:48.362Z,12.23
2023-04-17T09:44:26.958Z,13.50
2023-04-17T09:46:55.295Z,14.85
2023-04-17T09:49:40.574Z,13.45
2023-04-17T09:52:07.971Z,11.77
2023-04-17T09:54:38.281Z,14.75
2023-04-17T09:57:10.269Z,10.93
2023-04-17T09:59:41.919Z,11.00
2023-04-17T10:02:10.016Z,13.35
2023-04-17T10:04:40.294Z,11.93
2023-04-17T10:07:07.723Z,13.40
2023-04-17T10:09:34.695Z,11.80
2023-04-17T10:12:04.200Z,12.07
2023-04-17T10:17:00.070Z,10.95
2023-04-17T10:19:35.778Z,9.77
2023-04-17T10:22:20.891Z,11.98
2023-04-17T10:24:52.638Z,10.52
2023-04-17T10:27:28.481Z,11.70
2023-04-17T10:29:59.488Z,11.27
2023-04-17T10:32:31.183Z,11.48
2023-04-17T10:35:02.282Z,11.35
2023-04-17T10:37:50.734Z,15.20
2023-04-17T10:40:21.542Z,12.75
2023-04-17T10:43:14.029Z,11.55
2023-04-17T10:46:03.383Z,11.82
2023-04-17T10:48:45.146Z,12.45
2023-04-17T10:51:24.316Z,19.42
2023-04-17T10:54:02.521Z,20.80
2023-04-17T10:56:57.753Z,14.98
2023-04-17T10:59:30.046Z,14.73
2023-04-17T11:01:59.700Z,16.90
2023-04-17T11:04:29.102Z,14.82
2023-04-17T11:06:56.281Z,13.60
2023-04-17T11:09:25.638Z,15.95
2023-04-17T11:11:52.509Z,15.63
2023-04-17T11:14:22.614Z,14.30
2023-04-17T11:16:51.660Z,14.75
2023-04-17T11:19:23.793Z,10.95
2023-04-17T11:21:57.416Z,12.48
2023-04-17T11:24:26.777Z,11.27
2023-04-17T11:26:54.844Z,12.57
2023-04-17T11:29:23.529Z,12.30
2023-04-17T11:31:55.521Z,15.60
2023-04-17T11:34:23.399Z,12.60
2023-04-17T11:36:51.220Z,10.95
2023-04-17T11:39:19.963Z,10.40
2023-04-17T11:41:47.275Z,9.48
2023-04-17T11:44:15.331Z,9.55
2023-04-17T11:46:42.661Z,9.83
2023-04-17T11:49:10.007Z,9.10
2023-04-17T11:51:37.403Z,9.55
2023-04-17T11:54:04.291Z,8.00
2023-04-17T11:56:31.458Z,7.20
2023-04-17T11:58:59.493Z,8.98
2023-04-17T12:01:28.563Z,7.97
2023-04-17T12:03:57.846Z,8.68
2023-04-17T12:06:36.068Z,9.55
2023-04-17T12:09:03.108Z,9.27
2023-04-17T12:11:34.558Z,9.70
2023-04-17T12:14:02.588Z,16.00
2023-04-17T12:16:29.831Z,16.85
2023-04-17T12:18:57.431Z,16.38
2023-04-17T12:21:24.580Z,13.07
2023-04-17T12:23:51.894Z,10.57
2023-04-17T12:26:19.145Z,9.23
2023-04-17T12:28:46.072Z,8.98
2023-04-17T12:31:13.655Z,11.07
2023-04-17T12:33:40.655Z,9.40
2023-04-17T12:36:08.223Z,9.65
2023-04-17T12:38:36.027Z,9.02
2023-04-17T12:41:03.108Z,9.40
2023-04-17T12:43:31.992Z,9.35
2023-04-17T12:45:59.234Z,9.52
2023-04-17T12:48:26.110Z,11.38
2023-04-17T12:50:54.370Z,13.27
2023-04-17T12:53:21.306Z,10.38
2023-04-17T12:55:48.518Z,9.93
2023-04-17T12:58:16.058Z,10.32
2023-04-17T13:00:46.353Z,10.18
2023-04-17T13:03:13.429Z,14.32
2023-04-17T13:05:40.877Z,16.77
2023-04-17T13:08:12.490Z,14.27
2023-04-17T13:10:39.743Z,15.93
2023-04-17T13:13:08.400Z,18.38
2023-04-17T13:15:36.165Z,20.33
2023-04-17T13:18:03.403Z,24.98
2023-04-17T13:20:30.790Z,14.75
2023-04-17T13:22:58.989Z,9.32
2023-04-17T13:25:26.376Z,9.95
2023-04-17T13:27:55.269Z,9.73
2023-04-17T13:30:23.017Z,14.07
2023-04-17T13:32:50.131Z,14.52
2023-04-17T13:35:17.620Z,13.63
2023-04-17T13:37:44.485Z,15.60
2023-04-17T13:40:12.135Z,15.70
2023-04-17T13:42:38.975Z,13.55
2023-04-17T13:45:07.252Z,13.18
2023-04-17T13:47:34.268Z,10.80
2023-04-17T13:50:01.810Z,10.52
2023-04-17T13:52:28.810Z,11.10
2023-04-17T13:54:56.046Z,11.80
2023-04-17T13:57:22.920Z,10.15
2023-04-17T13:59:50.097Z,9.70
2023-04-17T14:02:17.134Z,11.82
2023-04-17T14:04:44.492Z,14.07
2023-04-17T14:07:12.903Z,15.50
2023-04-17T14:09:40.107Z,20.00
2023-04-17T14:12:07.106Z,17.20
2023-04-17T14:14:34.314Z,14.77
2023-04-17T14:17:01.468Z,16.00
2023-04-17T14:19:28.732Z,15.93
2023-04-17T14:21:55.606Z,14.60
2023-04-17T14:24:22.839Z,12.35
2023-04-17T14:26:49.736Z,12.60
2023-04-17T14:29:16.912Z,12.02
2023-04-17T14:31:43.786Z,11.45
2023-04-17T14:34:10.964Z,11.57
2023-04-17T14:36:37.890Z,11.13
2023-04-17T14:39:05.136Z,12.98
2023-04-17T14:41:34.209Z,10.18
2023-04-17T14:44:01.625Z,10.10
2023-04-17T14:46:28.690Z,13.55
2023-04-17T14:48:56.353Z,11.23
2023-04-17T14:51:24.259Z,9.63
2023-04-17T14:53:53.152Z,10.90
2023-04-17T14:56:21.904Z,10.32
2023-04-17T14:58:49.618Z,10.40
2023-04-17T15:01:16.525Z,10.77
2023-04-17T15:03:46.335Z,10.90
2023-04-17T15:06:15.601Z,13.25
2023-04-17T15:08:42.888Z,13.05
2023-04-17T15:11:09.893Z,14.55
2023-04-17T15:13:37.156Z,15.60
2023-04-17T15:16:04.374Z,17.25
2023-04-17T15:18:31.682Z,12.73
2023-04-17T15:20:58.752Z,12.52
2023-04-17T15:23:26.630Z,19.20
2023-04-17T15:25:57.633Z,12.57
2023-04-17T15:28:25.450Z,11.65
2023-04-17T15:30:52.412Z,13.60
2023-04-17T15:33:20.142Z,15.18
2023-04-17T15:35:47.420Z,14.52
2023-04-17T15:38:14.573Z,13.95
2023-04-17T15:40:41.466Z,15.45
2023-04-17T15:43:10.682Z,13.32
2023-04-17T15:45:37.831Z,11.57
2023-04-17T15:48:05.295Z,12.43
2023-04-17T15:50:34.213Z,12.93
2023-04-17T15:53:01.475Z,12.00
2023-04-17T15:55:28.408Z,11.98
2023-04-17T15:57:56.131Z,13.38
2023-04-17T16:00:23.141Z,12.15
2023-04-17T16:02:51.928Z,13.13
2023-04-17T16:05:19.690Z,12.40
2023-04-17T16:07:47.340Z,12.52
2023-04-17T16:10:14.735Z,11.38
2023-04-17T16:12:43.401Z,11.57
2023-04-17T16:15:11.629Z,14.13
2023-04-17T16:17:39.031Z,15.25
2023-04-17T16:20:06.911Z,16.63
2023-04-17T16:22:34.161Z,19.00
2023-04-17T16:25:01.925Z,18.33
2023-04-17T16:27:30.008Z,16.00
2023-04-17T16:29:56.858Z,13.93
2023-04-17T16:32:25.401Z,17.83
2023-04-17T16:34:52.645Z,18.77
2023-04-17T16:37:19.895Z,20.63
2023-04-17T16:39:47.326Z,17.67
2023-04-17T16:42:14.807Z,16.15
2023-04-17T16:44:41.762Z,13.73
2023-04-17T16:47:13.967Z,18.13
2023-04-17T16:49:42.265Z,22.25
2023-04-17T16:52:10.061Z,19.38
2023-04-17T16:54:37.020Z,18.13
2023-04-17T16:57:05.884Z,14.73
2023-04-17T16:59:33.153Z,15.25
2023-04-17T17:02:02.426Z,15.57
2023-04-17T17:06:57.827Z,16.55
2023-04-17T17:09:25.987Z,15.98
2023-04-17T17:11:53.340Z,14.25
2023-04-17T17:14:20.469Z,16.50
2023-04-17T17:16:47.821Z,15.57
2023-04-17T17:19:15.339Z,16.05
2023-04-17T17:21:42.681Z,15.05
2023-04-17T17:24:09.528Z,14.43
2023-04-17T17:26:37.125Z,15.52
2023-04-17T17:29:04.824Z,15.48
2023-04-17T17:31:33.960Z,14.05
2023-04-17T17:34:11.896Z,15.90
2023-04-17T17:36:49.544Z,13.18
2023-04-17T17:39:16.719Z,14.63
2023-04-17T17:41:45.866Z,16.23
2023-04-17T17:44:14.373Z,12.00
2023-04-17T17:46:41.852Z,15.20
2023-04-17T17:49:08.871Z,14.30
2023-04-17T17:51:36.131Z,13.82
2023-04-17T17:54:03.199Z,14.75
2023-04-17T17:56:30.371Z,19.70
2023-04-17T17:58:57.235Z,18.50
2023-04-17T18:01:25.106Z,22.88
2023-04-17T18:03:53.326Z,20.15
2023-04-17T18:06:21.449Z,16.67
2023-04-17T18:08:48.426Z,14.25
2023-04-17T18:11:15.783Z,15.18
2023-04-17T18:13:42.654Z,14.68
2023-04-17T18:16:10.044Z,16.75
2023-04-17T18:18:36.990Z,16.85
2023-04-17T18:21:07.863Z,14.13
2023-04-17T18:23:35.588Z,15.15
2023-04-17T18:26:03.364Z,14.98
2023-04-17T18:28:30.416Z,17.92
2023-04-17T18:30:57.747Z,16.25
2023-04-17T18:33:24.795Z,21.35
2023-04-17T18:35:52.004Z,20.17
2023-04-17T18:38:18.993Z,21.85
2023-04-17T18:40:46.236Z,15.32
2023-04-17T18:43:13.055Z,16.30
2023-04-17T18:45:40.208Z,18.08
2023-04-17T18:48:07.091Z,19.08
2023-04-17T18:50:34.449Z,16.67
2023-04-17T18:53:02.239Z,16.75
2023-04-17T18:55:29.522Z,17.00
2023-04-17T18:57:56.501Z,15.18
2023-04-17T19:00:23.744Z,16.70
2023-04-17T19:02:50.807Z,17.85
2023-04-17T19:05:20.417Z,29.08
2023-04-17T19:07:47.953Z,16.77
2023-04-17T19:10:15.233Z,14.80
2023-04-17T19:12:43.168Z,17.83
2023-04-17T19:15:11.541Z,14.73
2023-04-17T19:17:38.893Z,54.78
2023-04-17T19:20:06.898Z,32.10
2023-04-17T19:22:33.755Z,59.80
2023-04-17T19:25:00.968Z,17.75
2023-04-17T19:27:27.818Z,23.95
2023-04-17T19:29:54.965Z,33.92
2023-04-17T19:32:21.949Z,74.28
2023-04-17T19:34:49.204Z,29.35
2023-04-17T19:37:16.087Z,11.93
2023-04-17T19:39:43.196Z,21.73
2023-04-17T19:42:10.128Z,13.63
2023-04-17T19:44:37.252Z,15.07
2023-04-17T19:47:04.574Z,11.13
2023-04-17T19:49:31.819Z,10.30
2023-04-17T19:52:00.971Z,12.05
2023-04-17T19:54:28.292Z,11.05
2023-04-17T19:56:55.169Z,10.45
2023-04-17T19:59:23.218Z,10.60
2023-04-17T20:01:51.286Z,9.95
2023-04-17T20:04:18.706Z,11.35
2023-04-17T20:06:45.731Z,11.50
2023-04-17T20:09:14.849Z,10.02
2023-04-17T20:11:42.217Z,10.38
2023-04-17T20:14:09.346Z,12.20
2023-04-17T20:16:36.267Z,11.88
2023-04-17T20:19:03.533Z,11.65
2023-04-17T20:21:30.446Z,9.70
2023-04-17T20:23:59.429Z,10.65
2023-04-17T20:26:26.515Z,5.68
2023-04-17T20:28:54.904Z,7.00
2023-04-17T20:31:22.034Z,8.45
2023-04-17T20:33:49.335Z,8.80
2023-04-17T20:36:16.358Z,9.05
2023-04-17T20:38:43.776Z,9.20
2023-04-17T20:41:10.693Z,9.25
2023-04-17T20:43:37.852Z,8.80
2023-04-17T20:46:06.998Z,8.82
2023-04-17T20:48:34.283Z,9.00
2023-04-17T20:51:05.942Z,9.98
2023-04-17T20:53:33.120Z,9.25
2023-04-17T20:56:00.185Z,9.13
2023-04-17T20:58:27.387Z,10.00
2023-04-17T21:01:01.238Z,9.52
2023-04-17T21:03:33.200Z,9.02
2023-04-17T21:06:01.285Z,10.15
2023-04-17T21:08:28.525Z,9.80
2023-04-17T21:10:55.482Z,9.77
2023-04-17T21:13:23.449Z,10.02
2023-04-17T21:15:50.426Z,9.80
2023-04-17T21:18:17.539Z,9.30
2023-04-17T21:20:44.487Z,8.98
2023-04-17T21:23:11.791Z,10.05
2023-04-17T21:25:38.774Z,7.70
2023-04-17T21:28:05.947Z,9.50
2023-04-17T21:30:32.972Z,10.25
2023-04-17T21:33:00.256Z,9.25
2023-04-17T21:35:27.310Z,9.32
2023-04-17T21:37:54.863Z,8.65
2023-04-17T21:40:21.744Z,8.00
2023-04-17T21:42:48.925Z,8.93
2023-04-17T21:45:16.344Z,7.38
2023-04-17T21:47:43.559Z,7.55
2023-04-17T21:50:10.981Z,8.40
2023-04-17T21:52:38.424Z,7.68
2023-04-17T21:55:07.740Z,7.22
2023-04-17T21:57:35.392Z,7.05
2023-04-17T22:00:04.537Z,8.07
2023-04-17T22:02:31.744Z,8.95
2023-04-17T22:04:58.719Z,8.85
2023-04-17T22:07:25.939Z,8.43
2023-04-17T22:09:52.956Z,9.00
2023-04-17T22:12:22.887Z,9.88
2023-04-17T22:14:49.784Z,9.02
2023-04-17T22:17:16.903Z,9.95
2023-04-17T22:19:43.816Z,10.90
2023-04-17T22:22:48.408Z,10.02
2023-04-17T22:25:52.532Z,11.13
2023-04-17T22:28:20.399Z,11.80
2023-04-17T22:31:05.875Z,13.23
2023-04-17T22:33:51.714Z,12.55
2023-04-17T22:36:36.754Z,11.38
2023-04-17T22:39:41.484Z,13.07
2023-04-17T22:42:26.747Z,13.82
2023-04-17T22:44:53.870Z,13.10
2023-04-17T22:47:40.430Z,13.25
2023-04-17T22:50:45.715Z,12.00
2023-04-17T22:53:31.494Z,12.00
2023-04-17T22:56:23.614Z,14.95
2023-04-17T22:59:28.002Z,12.63
2023-04-17T23:02:32.908Z,13.55
2023-04-17T23:05:37.499Z,12.70
2023-04-17T23:08:23.561Z,13.73
2023-04-17T23:10:58.621Z,12.90
2023-04-17T23:13:30.626Z,11.95
2023-04-17T23:15:57.961Z,13.88
2023-04-17T23:18:25.207Z,13.27
2023-04-17T23:20:52.234Z,13.15
2023-04-17T23:23:19.501Z,13.40
2023-04-17T23:25:46.465Z,13.23
2023-04-17T23:28:13.987Z,13.52
2023-04-17T23:30:40.933Z,12.70
2023-04-17T23:33:08.203Z,13.05
2023-04-17T23:35:35.186Z,13.57
2023-04-17T23:38:02.402Z,13.55
2023-04-17T23:40:29.645Z,14.05
2023-04-17T23:42:56.790Z,13.00
2023-04-17T23:45:23.677Z,13.05
2023-04-17T23:47:52.752Z,14.50
2023-04-17T23:50:19.823Z,12.77
2023-04-17T23:52:46.976Z,12.88
2023-04-17T23:55:13.824Z,13.30
2023-04-17T23:57:41.246Z,13.80
